sensor_id;sensor_type;location;lat;lon;timestamp;P1;durP1;ratioP1;P2;durP2;ratioP2
44000;SDS011;29660;42.892;24.710;2022-12-22T00:02:11;162.50;;;96.70;;
44000;SDS011;29660;42.892;24.710;2022-12-22T00:07:37;182.63;;;99.90;;
44000;SDS011;29660;42.892;24.710;2022-12-22T00:12:58;223.65;;;120.85;;
44000;SDS011;29660;42.892;24.710;2022-12-22T00:18:18;144.75;;;81.55;;
44000;SDS011;29660;42.892;24.710;2022-12-22T00:23:39;138.45;;;78.20;;
44000;SDS011;29660;42.892;24.710;2022-12-22T00:29:00;114.10;;;65.50;;
44000;SDS011;29660;42.892;24.710;2022-12-22T00:34:21;109.15;;;62.05;;
44000;SDS011;29660;42.892;24.710;2022-12-22T00:39:42;115.35;;;64.43;;
44000;SDS011;29660;42.892;24.710;2022-12-22T00:45:02;112.63;;;60.53;;
44000;SDS011;29660;42.892;24.710;2022-12-22T00:50:25;124.57;;;67.90;;
44000;SDS011;29660;42.892;24.710;2022-12-22T00:55:50;146.73;;;81.55;;
44000;SDS011;29660;42.892;24.710;2022-12-22T01:01:11;115.20;;;65.22;;
44000;SDS011;29660;42.892;24.710;2022-12-22T01:06:33;124.13;;;66.60;;
44000;SDS011;29660;42.892;24.710;2022-12-22T01:11:54;117.72;;;64.32;;
44000;SDS011;29660;42.892;24.710;2022-12-22T01:17:15;113.90;;;61.75;;
44000;SDS011;29660;42.892;24.710;2022-12-22T01:22:36;85.45;;;48.78;;
44000;SDS011;29660;42.892;24.710;2022-12-22T01:27:56;47.28;;;28.45;;
44000;SDS011;29660;42.892;24.710;2022-12-22T01:33:16;55.05;;;31.60;;
44000;SDS011;29660;42.892;24.710;2022-12-22T01:38:37;98.65;;;55.83;;
44000;SDS011;29660;42.892;24.710;2022-12-22T01:43:57;112.72;;;63.58;;
44000;SDS011;29660;42.892;24.710;2022-12-22T01:55:04;115.72;;;62.78;;
44000;SDS011;29660;42.892;24.710;2022-12-22T02:00:30;64.78;;;36.17;;
44000;SDS011;29660;42.892;24.710;2022-12-22T02:05:59;55.17;;;30.77;;
44000;SDS011;29660;42.892;24.710;2022-12-22T02:11:45;55.38;;;29.63;;
44000;SDS011;29660;42.892;24.710;2022-12-22T02:22:52;80.43;;;44.20;;
44000;SDS011;29660;42.892;24.710;2022-12-22T02:28:27;73.07;;;40.13;;
44000;SDS011;29660;42.892;24.710;2022-12-22T02:33:49;74.75;;;42.33;;
44000;SDS011;29660;42.892;24.710;2022-12-22T02:39:23;76.38;;;40.03;;
44000;SDS011;29660;42.892;24.710;2022-12-22T02:50:52;65.13;;;38.22;;
44000;SDS011;29660;42.892;24.710;2022-12-22T02:56:19;44.00;;;27.38;;
44000;SDS011;29660;42.892;24.710;2022-12-22T03:01:42;37.67;;;22.15;;
44000;SDS011;29660;42.892;24.710;2022-12-22T03:07:04;40.33;;;24.45;;
44000;SDS011;29660;42.892;24.710;2022-12-22T03:12:25;47.35;;;25.83;;
44000;SDS011;29660;42.892;24.710;2022-12-22T03:17:45;64.50;;;35.00;;
44000;SDS011;29660;42.892;24.710;2022-12-22T03:23:06;44.35;;;25.95;;
44000;SDS011;29660;42.892;24.710;2022-12-22T03:28:27;58.42;;;35.67;;
44000;SDS011;29660;42.892;24.710;2022-12-22T03:33:29;108.60;;;57.70;;
44000;SDS011;29660;42.892;24.710;2022-12-22T03:38:32;60.20;;;35.08;;
44000;SDS011;29660;42.892;24.710;2022-12-22T03:43:34;61.15;;;33.70;;
44000;SDS011;29660;42.892;24.710;2022-12-22T03:49:08;53.90;;;30.85;;
44000;SDS011;29660;42.892;24.710;2022-12-22T03:54:11;53.58;;;31.25;;
44000;SDS011;29660;42.892;24.710;2022-12-22T03:59:15;49.83;;;30.02;;
44000;SDS011;29660;42.892;24.710;2022-12-22T04:04:18;57.60;;;32.35;;
44000;SDS011;29660;42.892;24.710;2022-12-22T04:09:23;77.18;;;42.25;;
44000;SDS011;29660;42.892;24.710;2022-12-22T04:14:26;65.43;;;37.90;;
44000;SDS011;29660;42.892;24.710;2022-12-22T04:19:34;66.43;;;37.03;;
44000;SDS011;29660;42.892;24.710;2022-12-22T04:24:36;61.22;;;34.50;;
44000;SDS011;29660;42.892;24.710;2022-12-22T04:29:38;57.45;;;34.53;;
44000;SDS011;29660;42.892;24.710;2022-12-22T04:34:40;93.80;;;52.33;;
44000;SDS011;29660;42.892;24.710;2022-12-22T04:39:42;78.38;;;46.50;;
44000;SDS011;29660;42.892;24.710;2022-12-22T04:44:44;100.20;;;60.47;;
44000;SDS011;29660;42.892;24.710;2022-12-22T04:49:46;92.90;;;51.38;;
44000;SDS011;29660;42.892;24.710;2022-12-22T04:54:48;93.47;;;51.58;;
44000;SDS011;29660;42.892;24.710;2022-12-22T04:59:49;101.82;;;60.88;;
44000;SDS011;29660;42.892;24.710;2022-12-22T05:04:51;103.97;;;55.67;;
44000;SDS011;29660;42.892;24.710;2022-12-22T05:09:53;92.78;;;52.97;;
44000;SDS011;29660;42.892;24.710;2022-12-22T05:14:55;98.93;;;53.92;;
44000;SDS011;29660;42.892;24.710;2022-12-22T05:19:57;93.50;;;53.38;;
44000;SDS011;29660;42.892;24.710;2022-12-22T05:24:59;96.65;;;54.60;;
44000;SDS011;29660;42.892;24.710;2022-12-22T05:30:02;97.78;;;53.08;;
44000;SDS011;29660;42.892;24.710;2022-12-22T05:35:05;76.15;;;40.67;;
44000;SDS011;29660;42.892;24.710;2022-12-22T05:40:09;82.32;;;43.67;;
44000;SDS011;29660;42.892;24.710;2022-12-22T05:45:13;94.13;;;54.20;;
44000;SDS011;29660;42.892;24.710;2022-12-22T05:50:18;179.63;;;100.70;;
44000;SDS011;29660;42.892;24.710;2022-12-22T05:55:31;223.48;;;129.63;;
44000;SDS011;29660;42.892;24.710;2022-12-22T06:00:34;185.63;;;109.00;;
44000;SDS011;29660;42.892;24.710;2022-12-22T06:05:36;181.52;;;98.70;;
44000;SDS011;29660;42.892;24.710;2022-12-22T06:10:38;224.85;;;128.15;;
44000;SDS011;29660;42.892;24.710;2022-12-22T06:15:40;153.32;;;88.10;;
44000;SDS011;29660;42.892;24.710;2022-12-22T06:20:44;130.80;;;68.20;;
44000;SDS011;29660;42.892;24.710;2022-12-22T06:25:53;118.78;;;66.18;;
44000;SDS011;29660;42.892;24.710;2022-12-22T06:30:59;224.38;;;125.85;;
44000;SDS011;29660;42.892;24.710;2022-12-22T06:36:05;242.68;;;135.00;;
44000;SDS011;29660;42.892;24.710;2022-12-22T06:41:08;180.65;;;94.68;;
44000;SDS011;29660;42.892;24.710;2022-12-22T06:46:11;185.25;;;103.15;;
44000;SDS011;29660;42.892;24.710;2022-12-22T06:51:13;206.20;;;115.82;;
44000;SDS011;29660;42.892;24.710;2022-12-22T06:56:15;208.07;;;119.53;;
44000;SDS011;29660;42.892;24.710;2022-12-22T07:01:17;195.82;;;120.32;;
44000;SDS011;29660;42.892;24.710;2022-12-22T07:06:19;218.63;;;125.15;;
44000;SDS011;29660;42.892;24.710;2022-12-22T07:11:21;190.80;;;121.13;;
44000;SDS011;29660;42.892;24.710;2022-12-22T07:16:23;230.57;;;134.23;;
44000;SDS011;29660;42.892;24.710;2022-12-22T07:21:25;194.80;;;117.65;;
44000;SDS011;29660;42.892;24.710;2022-12-22T07:26:27;183.73;;;113.85;;
44000;SDS011;29660;42.892;24.710;2022-12-22T07:31:29;167.20;;;109.03;;
44000;SDS011;29660;42.892;24.710;2022-12-22T07:36:31;209.93;;;132.40;;
44000;SDS011;29660;42.892;24.710;2022-12-22T07:41:33;175.35;;;105.45;;
44000;SDS011;29660;42.892;24.710;2022-12-22T07:46:54;199.35;;;126.03;;
44000;SDS011;29660;42.892;24.710;2022-12-22T07:51:56;207.80;;;135.93;;
44000;SDS011;29660;42.892;24.710;2022-12-22T07:56:59;232.73;;;144.95;;
44000;SDS011;29660;42.892;24.710;2022-12-22T08:02:01;244.32;;;163.55;;
44000;SDS011;29660;42.892;24.710;2022-12-22T08:07:03;270.65;;;179.82;;
44000;SDS011;29660;42.892;24.710;2022-12-22T08:12:05;290.98;;;212.68;;
44000;SDS011;29660;42.892;24.710;2022-12-22T08:17:07;242.60;;;156.18;;
44000;SDS011;29660;42.892;24.710;2022-12-22T08:22:09;249.27;;;171.18;;
44000;SDS011;29660;42.892;24.710;2022-12-22T08:27:13;246.43;;;161.68;;
44000;SDS011;29660;42.892;24.710;2022-12-22T08:32:26;201.27;;;126.57;;
44000;SDS011;29660;42.892;24.710;2022-12-22T08:37:28;216.55;;;142.95;;
44000;SDS011;29660;42.892;24.710;2022-12-22T08:42:35;211.65;;;140.85;;
44000;SDS011;29660;42.892;24.710;2022-12-22T08:47:52;311.85;;;211.98;;
44000;SDS011;29660;42.892;24.710;2022-12-22T08:53:00;244.82;;;166.40;;
44000;SDS011;29660;42.892;24.710;2022-12-22T08:58:05;183.02;;;123.63;;
44000;SDS011;29660;42.892;24.710;2022-12-22T09:03:07;134.85;;;94.55;;
44000;SDS011;29660;42.892;24.710;2022-12-22T09:08:09;138.30;;;99.32;;
44000;SDS011;29660;42.892;24.710;2022-12-22T09:13:11;160.88;;;114.50;;
44000;SDS011;29660;42.892;24.710;2022-12-22T09:18:32;165.98;;;114.15;;
44000;SDS011;29660;42.892;24.710;2022-12-22T09:23:34;134.52;;;96.07;;
44000;SDS011;29660;42.892;24.710;2022-12-22T09:28:37;99.05;;;68.07;;
44000;SDS011;29660;42.892;24.710;2022-12-22T09:33:42;96.82;;;66.82;;
44000;SDS011;29660;42.892;24.710;2022-12-22T09:38:44;177.00;;;121.93;;
44000;SDS011;29660;42.892;24.710;2022-12-22T09:43:46;142.38;;;98.63;;
44000;SDS011;29660;42.892;24.710;2022-12-22T09:48:49;138.63;;;94.32;;
44000;SDS011;29660;42.892;24.710;2022-12-22T09:53:52;117.35;;;83.60;;
44000;SDS011;29660;42.892;24.710;2022-12-22T09:58:58;98.05;;;69.53;;
44000;SDS011;29660;42.892;24.710;2022-12-22T10:09:25;78.95;;;53.28;;
44000;SDS011;29660;42.892;24.710;2022-12-22T10:14:51;69.45;;;51.78;;
44000;SDS011;29660;42.892;24.710;2022-12-22T10:36:28;37.25;;;25.45;;
44000;SDS011;29660;42.892;24.710;2022-12-22T10:41:39;34.63;;;24.63;;
44000;SDS011;29660;42.892;24.710;2022-12-22T10:52:16;21.23;;;15.77;;
44000;SDS011;29660;42.892;24.710;2022-12-22T10:57:24;95.18;;;48.20;;
44000;SDS011;29660;42.892;24.710;2022-12-22T11:07:35;16.42;;;10.82;;
44000;SDS011;29660;42.892;24.710;2022-12-22T11:12:44;12.95;;;8.18;;
44000;SDS011;29660;42.892;24.710;2022-12-22T11:18:18;172.18;;;74.93;;
44000;SDS011;29660;42.892;24.710;2022-12-22T11:38:46;26.83;;;17.02;;
44000;SDS011;29660;42.892;24.710;2022-12-22T11:59:45;11.70;;;8.88;;
44000;SDS011;29660;42.892;24.710;2022-12-22T12:05:22;22.58;;;17.42;;
44000;SDS011;29660;42.892;24.710;2022-12-22T12:10:43;12.45;;;11.13;;
44000;SDS011;29660;42.892;24.710;2022-12-22T12:15:51;10.60;;;7.28;;
44000;SDS011;29660;42.892;24.710;2022-12-22T12:31:33;11.02;;;8.57;;
44000;SDS011;29660;42.892;24.710;2022-12-22T12:36:48;17.17;;;9.82;;
44000;SDS011;29660;42.892;24.710;2022-12-22T12:47:31;17.35;;;10.52;;
44000;SDS011;29660;42.892;24.710;2022-12-22T12:57:46;36.15;;;27.38;;
44000;SDS011;29660;42.892;24.710;2022-12-22T13:02:56;10.68;;;6.88;;
44000;SDS011;29660;42.892;24.710;2022-12-22T13:08:07;14.07;;;9.77;;
44000;SDS011;29660;42.892;24.710;2022-12-22T13:13:13;58.33;;;35.38;;
44000;SDS011;29660;42.892;24.710;2022-12-22T13:18:55;13.50;;;7.72;;
44000;SDS011;29660;42.892;24.710;2022-12-22T13:24:01;21.23;;;12.23;;
44000;SDS011;29660;42.892;24.710;2022-12-22T13:29:26;8.65;;;5.00;;
44000;SDS011;29660;42.892;24.710;2022-12-22T13:40:05;27.25;;;19.33;;
44000;SDS011;29660;42.892;24.710;2022-12-22T13:50:32;27.60;;;20.20;;
44000;SDS011;29660;42.892;24.710;2022-12-22T13:55:37;26.50;;;16.73;;
44000;SDS011;29660;42.892;24.710;2022-12-22T14:00:39;50.97;;;32.05;;
44000;SDS011;29660;42.892;24.710;2022-12-22T14:05:41;53.67;;;34.95;;
44000;SDS011;29660;42.892;24.710;2022-12-22T14:10:43;202.43;;;128.60;;
44000;SDS011;29660;42.892;24.710;2022-12-22T14:15:46;125.38;;;90.68;;
44000;SDS011;29660;42.892;24.710;2022-12-22T14:20:48;136.40;;;95.28;;
44000;SDS011;29660;42.892;24.710;2022-12-22T14:25:50;123.43;;;86.50;;
44000;SDS011;29660;42.892;24.710;2022-12-22T14:30:56;110.50;;;75.25;;
44000;SDS011;29660;42.892;24.710;2022-12-22T14:36:13;220.60;;;155.00;;
44000;SDS011;29660;42.892;24.710;2022-12-22T14:52:15;244.20;;;176.82;;
44000;SDS011;29660;42.892;24.710;2022-12-22T15:08:39;246.52;;;170.57;;
44000;SDS011;29660;42.892;24.710;2022-12-22T15:13:46;171.68;;;127.63;;
44000;SDS011;29660;42.892;24.710;2022-12-22T15:18:49;189.57;;;139.52;;
44000;SDS011;29660;42.892;24.710;2022-12-22T15:23:53;208.77;;;148.60;;
44000;SDS011;29660;42.892;24.710;2022-12-22T15:28:55;240.70;;;162.25;;
44000;SDS011;29660;42.892;24.710;2022-12-22T15:33:58;201.10;;;134.50;;
44000;SDS011;29660;42.892;24.710;2022-12-22T15:39:03;216.50;;;145.38;;
44000;SDS011;29660;42.892;24.710;2022-12-22T15:44:05;344.23;;;222.38;;
44000;SDS011;29660;42.892;24.710;2022-12-22T15:49:10;195.85;;;134.85;;
44000;SDS011;29660;42.892;24.710;2022-12-22T15:54:16;172.95;;;116.75;;
44000;SDS011;29660;42.892;24.710;2022-12-22T15:59:25;226.77;;;162.10;;
44000;SDS011;29660;42.892;24.710;2022-12-22T16:04:29;233.70;;;172.68;;
44000;SDS011;29660;42.892;24.710;2022-12-22T16:09:32;319.10;;;227.40;;
44000;SDS011;29660;42.892;24.710;2022-12-22T16:14:59;294.70;;;199.73;;
44000;SDS011;29660;42.892;24.710;2022-12-22T16:20:02;307.63;;;208.23;;
44000;SDS011;29660;42.892;24.710;2022-12-22T16:25:07;230.50;;;155.60;;
44000;SDS011;29660;42.892;24.710;2022-12-22T16:30:18;244.45;;;163.88;;
44000;SDS011;29660;42.892;24.710;2022-12-22T16:35:22;215.80;;;147.60;;
44000;SDS011;29660;42.892;24.710;2022-12-22T16:40:26;305.70;;;206.82;;
44000;SDS011;29660;42.892;24.710;2022-12-22T16:45:30;245.65;;;161.38;;
44000;SDS011;29660;42.892;24.710;2022-12-22T16:50:35;198.07;;;129.00;;
44000;SDS011;29660;42.892;24.710;2022-12-22T16:55:37;171.30;;;113.65;;
44000;SDS011;29660;42.892;24.710;2022-12-22T17:00:40;181.40;;;120.97;;
44000;SDS011;29660;42.892;24.710;2022-12-22T17:05:48;165.98;;;115.10;;
44000;SDS011;29660;42.892;24.710;2022-12-22T17:10:57;167.07;;;112.57;;
44000;SDS011;29660;42.892;24.710;2022-12-22T17:16:18;177.60;;;119.00;;
44000;SDS011;29660;42.892;24.710;2022-12-22T17:21:22;168.13;;;116.07;;
44000;SDS011;29660;42.892;24.710;2022-12-22T17:26:25;146.00;;;102.93;;
44000;SDS011;29660;42.892;24.710;2022-12-22T17:31:27;144.27;;;96.35;;
44000;SDS011;29660;42.892;24.710;2022-12-22T17:36:34;137.88;;;95.20;;
44000;SDS011;29660;42.892;24.710;2022-12-22T17:41:38;141.33;;;98.47;;
44000;SDS011;29660;42.892;24.710;2022-12-22T17:46:40;152.23;;;114.18;;
44000;SDS011;29660;42.892;24.710;2022-12-22T17:51:42;155.75;;;115.05;;
44000;SDS011;29660;42.892;24.710;2022-12-22T17:56:44;179.40;;;126.97;;
44000;SDS011;29660;42.892;24.710;2022-12-22T18:01:46;185.07;;;124.53;;
44000;SDS011;29660;42.892;24.710;2022-12-22T18:06:48;184.13;;;132.65;;
44000;SDS011;29660;42.892;24.710;2022-12-22T18:11:51;187.10;;;130.48;;
44000;SDS011;29660;42.892;24.710;2022-12-22T18:16:54;177.45;;;122.00;;
44000;SDS011;29660;42.892;24.710;2022-12-22T18:21:56;176.02;;;121.38;;
44000;SDS011;29660;42.892;24.710;2022-12-22T18:26:58;156.38;;;108.28;;
44000;SDS011;29660;42.892;24.710;2022-12-22T18:32:01;167.90;;;115.10;;
44000;SDS011;29660;42.892;24.710;2022-12-22T18:37:04;195.40;;;131.30;;
44000;SDS011;29660;42.892;24.710;2022-12-22T18:42:18;136.75;;;94.15;;
44000;SDS011;29660;42.892;24.710;2022-12-22T18:47:22;139.23;;;99.72;;
44000;SDS011;29660;42.892;24.710;2022-12-22T18:52:24;141.90;;;103.47;;
44000;SDS011;29660;42.892;24.710;2022-12-22T18:57:26;119.57;;;81.88;;
44000;SDS011;29660;42.892;24.710;2022-12-22T19:02:28;101.28;;;69.68;;
44000;SDS011;29660;42.892;24.710;2022-12-22T19:07:31;88.25;;;57.85;;
44000;SDS011;29660;42.892;24.710;2022-12-22T19:12:52;117.80;;;79.30;;
44000;SDS011;29660;42.892;24.710;2022-12-22T19:17:56;145.93;;;95.65;;
44000;SDS011;29660;42.892;24.710;2022-12-22T19:22:58;132.95;;;87.57;;
44000;SDS011;29660;42.892;24.710;2022-12-22T19:28:22;174.80;;;115.65;;
44000;SDS011;29660;42.892;24.710;2022-12-22T19:33:44;230.18;;;154.35;;
44000;SDS011;29660;42.892;24.710;2022-12-22T19:38:47;241.63;;;161.57;;
44000;SDS011;29660;42.892;24.710;2022-12-22T19:43:51;247.35;;;154.50;;
44000;SDS011;29660;42.892;24.710;2022-12-22T19:48:53;281.25;;;159.40;;
44000;SDS011;29660;42.892;24.710;2022-12-22T19:53:57;269.25;;;162.75;;
44000;SDS011;29660;42.892;24.710;2022-12-22T19:58:59;213.20;;;132.00;;
44000;SDS011;29660;42.892;24.710;2022-12-22T20:04:02;369.55;;;241.88;;
44000;SDS011;29660;42.892;24.710;2022-12-22T20:09:04;143.23;;;86.03;;
44000;SDS011;29660;42.892;24.710;2022-12-22T20:14:09;183.98;;;114.80;;
44000;SDS011;29660;42.892;24.710;2022-12-22T20:19:17;160.10;;;97.85;;
44000;SDS011;29660;42.892;24.710;2022-12-22T20:24:20;154.93;;;98.93;;
44000;SDS011;29660;42.892;24.710;2022-12-22T20:29:23;111.93;;;71.00;;
44000;SDS011;29660;42.892;24.710;2022-12-22T20:34:45;145.60;;;88.70;;
44000;SDS011;29660;42.892;24.710;2022-12-22T20:39:47;153.68;;;95.30;;
44000;SDS011;29660;42.892;24.710;2022-12-22T20:45:07;160.02;;;103.18;;
44000;SDS011;29660;42.892;24.710;2022-12-22T20:55:23;115.95;;;78.95;;
44000;SDS011;29660;42.892;24.710;2022-12-22T21:00:27;107.65;;;71.47;;
44000;SDS011;29660;42.892;24.710;2022-12-22T21:05:29;97.78;;;66.38;;
44000;SDS011;29660;42.892;24.710;2022-12-22T21:10:31;92.25;;;59.47;;
44000;SDS011;29660;42.892;24.710;2022-12-22T21:15:33;101.93;;;68.90;;
44000;SDS011;29660;42.892;24.710;2022-12-22T21:20:35;118.25;;;79.97;;
44000;SDS011;29660;42.892;24.710;2022-12-22T21:25:37;102.75;;;70.45;;
44000;SDS011;29660;42.892;24.710;2022-12-22T21:30:46;100.40;;;66.43;;
44000;SDS011;29660;42.892;24.710;2022-12-22T21:35:49;103.00;;;64.55;;
44000;SDS011;29660;42.892;24.710;2022-12-22T21:40:51;72.85;;;48.15;;
44000;SDS011;29660;42.892;24.710;2022-12-22T21:45:53;76.32;;;49.53;;
44000;SDS011;29660;42.892;24.710;2022-12-22T21:50:55;81.40;;;51.33;;
44000;SDS011;29660;42.892;24.710;2022-12-22T21:55:57;89.80;;;59.95;;
44000;SDS011;29660;42.892;24.710;2022-12-22T22:01:00;77.25;;;49.90;;
44000;SDS011;29660;42.892;24.710;2022-12-22T22:06:02;86.75;;;53.90;;
44000;SDS011;29660;42.892;24.710;2022-12-22T22:11:04;107.15;;;65.75;;
44000;SDS011;29660;42.892;24.710;2022-12-22T22:16:18;107.45;;;64.30;;
44000;SDS011;29660;42.892;24.710;2022-12-22T22:21:20;113.07;;;67.82;;
44000;SDS011;29660;42.892;24.710;2022-12-22T22:26:22;105.88;;;60.13;;
44000;SDS011;29660;42.892;24.710;2022-12-22T22:31:24;95.95;;;60.00;;
44000;SDS011;29660;42.892;24.710;2022-12-22T22:36:26;94.28;;;55.97;;
44000;SDS011;29660;42.892;24.710;2022-12-22T22:41:28;94.97;;;59.88;;
44000;SDS011;29660;42.892;24.710;2022-12-22T22:46:34;103.55;;;64.88;;
44000;SDS011;29660;42.892;24.710;2022-12-22T22:51:36;110.97;;;65.88;;
44000;SDS011;29660;42.892;24.710;2022-12-22T22:56:38;125.82;;;76.07;;
44000;SDS011;29660;42.892;24.710;2022-12-22T23:01:40;108.10;;;67.55;;
44000;SDS011;29660;42.892;24.710;2022-12-22T23:06:42;94.68;;;59.65;;
44000;SDS011;29660;42.892;24.710;2022-12-22T23:11:44;97.78;;;60.28;;
44000;SDS011;29660;42.892;24.710;2022-12-22T23:16:47;95.53;;;60.65;;
44000;SDS011;29660;42.892;24.710;2022-12-22T23:21:49;107.88;;;68.03;;
44000;SDS011;29660;42.892;24.710;2022-12-22T23:26:51;115.63;;;70.55;;
44000;SDS011;29660;42.892;24.710;2022-12-22T23:31:53;139.45;;;80.30;;
44000;SDS011;29660;42.892;24.710;2022-12-22T23:36:55;137.65;;;78.65;;
44000;SDS011;29660;42.892;24.710;2022-12-22T23:41:58;134.35;;;77.78;;
44000;SDS011;29660;42.892;24.710;2022-12-22T23:47:00;99.60;;;57.35;;
44000;SDS011;29660;42.892;24.710;2022-12-22T23:52:02;63.15;;;37.53;;
44000;SDS011;29660;42.892;24.710;2022-12-22T23:57:04;65.57;;;40.35;;
